Terminal Aerodrome Forecast
Issued by NWS

Home | Current Version | Previous Version | Text Only | Print | Product List | Glossary On
Versions: 1 2 3 4 5 6 7 8 9 10 11 12 13 14 15 16 17 18 19 20 21 22 23 24 25 26 27 28 29 30 31 32 33
763
FTUS46 KLOX 031122
TAFLAX
TAF
KLAX 031122Z 0312/0418 VRB03KT P6SM SKC
     FM031900 26007KT P6SM BKN200
     FM032100 27012KT P6SM BKN200
     FM040500 VRB03KT P6SM BKN200
     FM040800 VRB03KT P6SM BKN015
     FM041300 05005KT P6SM OVC020
     FM041700 22007KT P6SM OVC020=

USA.gov is the U.S. government's official web portal to all federal, state and local government web resources and services.